Time;durP1;ratioP1;P1;durP2;ratioP2;P2;SDS_P1;SDS_P2;PMS_P1;PMS_P2;Temp;Humidity;BMP_temperature;BMP_pressure;BME280_temperature;BME280_humidity;BME280_pressure;Samples;Min_cycle;Max_cycle;Signal;HPM_P1;HPM_P2
2023/07/17 00:03:26;;;;;;;7.97;3.53;;;;;;;-145.68;79.14;73391.84;10452646;28;20228;-64
2023/07/17 00:08:26;;;;;;;8.40;4.15;;;;;;;-145.68;79.95;73403.84;10453115;28;20659;-64
2023/07/17 00:13:27;;;;;;;4.10;3.25;;;;;;;-145.68;80.44;73405.84;10452406;28;20576;-64
2023/07/17 00:18:30;;;;;;;4.30;3.22;;;;;;;-145.68;79.98;73413.84;10452709;28;20242;-64
2023/07/17 00:23:31;;;;;;;4.13;3.22;;;;;;;-145.68;79.87;73413.84;10452265;28;20219;-64
2023/07/17 00:28:31;;;;;;;7.00;3.65;;;;;;;-145.68;81.43;73435.84;10452382;28;20573;-64
2023/07/17 00:33:33;;;;;;;11.40;3.53;;;;;;;-145.68;83.46;73447.81;10452406;28;20208;-66
2023/07/17 00:38:33;;;;;;;9.02;3.90;;;;;;;-145.68;84.32;73471.81;10452039;28;20188;-64
2023/07/17 00:43:33;;;;;;;9.13;3.85;;;;;;;-145.68;85.76;73475.81;10437283;28;20216;-65
2023/07/17 00:48:34;;;;;;;5.30;3.03;;;;;;;-145.68;86.64;73489.81;10459858;28;20191;-65
2023/07/17 00:53:37;;;;;;;10.68;4.13;;;;;;;-145.68;87.37;73491.81;10459587;28;20227;-66
2023/07/17 00:58:37;;;;;;;5.32;3.40;;;;;;;-145.68;87.40;73497.78;10459664;28;20238;-66
2023/07/17 01:03:38;;;;;;;7.60;3.45;;;;;;;-145.68;88.67;73515.78;10440853;28;20220;-65
2023/07/17 01:08:39;;;;;;;5.47;3.72;;;;;;;-145.68;87.40;73507.78;10459470;28;20192;-65
2023/07/17 01:13:46;;;;;;;7.22;3.42;;;;;;;-145.68;87.56;73511.78;10458873;28;20200;-65
2023/07/17 01:18:46;;;;;;;9.18;3.90;;;;;;;-145.68;89.37;73527.78;10441029;28;20662;-66
2023/07/17 01:23:47;;;;;;;6.30;3.17;;;;;;;-145.68;87.56;73527.78;10458838;28;20219;-65
2023/07/17 01:28:47;;;;;;;4.75;3.47;;;;;;;-145.68;86.41;73517.78;10440652;28;20263;-66
2023/07/17 01:33:48;;;;;;;9.13;3.60;;;;;;;-145.68;87.17;73539.78;10440453;28;20200;-65
2023/07/17 01:38:48;;;;;;;5.55;3.72;;;;;;;-145.68;86.97;73541.78;10457886;28;20195;-65
2023/07/17 01:43:49;;;;;;;7.50;3.83;;;;;;;-145.68;88.13;73563.75;10457240;28;20243;-65
2023/07/17 01:48:50;;;;;;;6.20;3.70;;;;;;;-145.68;88.82;73571.75;10457003;28;20242;-64
2023/07/17 01:53:50;;;;;;;8.23;4.28;;;;;;;-145.68;88.18;73575.75;10456428;28;20259;-65
2023/07/17 01:58:50;;;;;;;10.10;3.40;;;;;;;-145.68;89.60;73585.75;10456870;28;20286;-64
2023/07/17 02:03:51;;;;;;;8.23;3.70;;;;;;;-145.68;89.30;73585.75;10438883;28;20220;-67
2023/07/17 02:08:51;;;;;;;7.20;3.35;;;;;;;-145.68;88.46;73583.75;10457052;28;20269;-64
2023/07/17 02:13:51;;;;;;;7.57;3.65;;;;;;;-145.68;88.65;73603.72;10456484;28;20200;-64
2023/07/17 02:18:52;;;;;;;5.65;3.80;;;;;;;-145.68;88.99;73603.72;10438772;28;20270;-64
2023/07/17 02:23:52;;;;;;;9.52;4.25;;;;;;;-145.68;89.62;73617.72;10456132;28;20233;-64
2023/07/17 02:28:52;;;;;;;7.43;3.80;;;;;;;-145.68;89.21;73621.72;10456100;28;20275;-64
2023/07/17 02:33:55;;;;;;;10.77;4.10;;;;;;;-145.68;88.01;73621.72;10455734;28;20203;-64
2023/07/17 02:38:56;;;;;;;6.35;3.40;;;;;;;-145.68;88.31;73629.72;10455613;28;20187;-64
2023/07/17 02:43:56;;;;;;;9.23;3.90;;;;;;;-145.68;89.08;73633.72;10455434;28;20219;-64
2023/07/17 02:48:57;;;;;;;8.68;3.72;;;;;;;-145.68;90.42;73637.72;10455083;28;20709;-64
2023/07/17 02:53:57;;;;;;;7.25;3.90;;;;;;;-145.68;90.51;73649.72;10440126;28;20609;-64
2023/07/17 02:58:57;;;;;;;5.22;3.15;;;;;;;-145.68;90.72;73659.69;10455124;28;20278;-64
2023/07/17 03:03:58;;;;;;;10.38;4.03;;;;;;;-145.68;90.09;73655.69;10438781;28;20220;-65
2023/07/17 03:08:58;;;;;;;5.10;3.85;;;;;;;-145.68;92.57;73675.69;10395029;28;20283;-64
2023/07/17 03:13:58;;;;;;;10.80;4.68;;;;;;;-145.68;91.48;73655.69;10413098;28;20200;-65
2023/07/17 03:18:59;;;;;;;4.68;3.55;;;;;;;-145.68;90.49;73647.72;10395218;28;20275;-65
2023/07/17 03:23:59;;;;;;;6.93;3.42;;;;;;;-145.68;88.47;73637.72;10394943;28;20224;-64
2023/07/17 03:29:00;;;;;;;7.88;3.45;;;;;;;-145.68;89.03;73657.69;10412687;28;20560;-64
2023/07/17 03:34:00;;;;;;;6.88;4.22;;;;;;;-145.68;90.12;73659.69;10394518;28;20211;-65
2023/07/17 03:39:01;;;;;;;6.50;3.88;;;;;;;-145.68;89.81;73655.69;10394729;28;20682;-65
2023/07/17 03:44:03;;;;;;;5.95;3.58;;;;;;;-145.68;88.89;73657.69;10394212;28;20220;-65
2023/07/17 03:49:04;;;;;;;4.88;3.63;;;;;;;-145.68;90.16;73655.69;10394326;28;20196;-65
2023/07/17 03:54:05;;;;;;;5.97;3.60;;;;;;;-145.68;90.66;73659.69;10394170;28;20240;-65
2023/07/17 03:59:06;;;;;;;4.25;3.17;;;;;;;-145.68;92.60;73661.69;10394028;28;20193;-66
2023/07/17 04:04:06;;;;;;;7.25;3.70;;;;;;;-145.68;94.55;73653.69;10393911;28;20235;-66
2023/07/17 04:09:09;;;;;;;7.30;3.83;;;;;;;-145.68;94.52;73647.72;10392062;28;20195;-65
2023/07/17 04:14:11;;;;;;;6.47;4.28;;;;;;;-145.68;95.43;73665.69;10411774;28;20284;-66
2023/07/17 04:19:13;;;;;;;10.23;4.20;;;;;;;-145.68;95.54;73649.72;10397957;28;20283;-66
2023/07/17 04:24:13;;;;;;;11.60;4.20;;;;;;;-145.68;91.40;73627.72;10401847;28;20299;-65
2023/07/17 04:29:21;;;;;;;6.82;3.80;;;;;;;-145.68;88.33;73609.72;10401796;28;20216;-66
2023/07/17 04:34:22;;;;;;;7.78;3.50;;;;;;;-145.68;85.00;73571.75;10401595;28;20215;-65
2023/07/17 04:39:23;;;;;;;6.18;3.33;;;;;;;-145.68;79.87;73529.78;10401304;28;20639;-65
2023/07/17 04:44:24;;;;;;;7.93;3.50;;;;;;;-145.68;77.72;73499.78;10418905;28;20342;-65
2023/07/17 04:49:24;;;;;;;7.05;3.38;;;;;;;-145.68;75.65;73461.81;10418738;28;20191;-65
2023/07/17 04:54:24;;;;;;;10.45;3.65;;;;;;;-145.68;73.72;73427.84;10402624;23;20245;-70
2023/07/17 04:59:25;;;;;;;6.75;3.20;;;;;;;-145.68;71.80;73389.88;10358718;28;20251;-70
2023/07/17 05:04:26;;;;;;;6.85;3.22;;;;;;;-145.68;70.06;73367.88;10359569;28;20209;-70
2023/07/17 05:09:27;;;;;;;5.13;3.20;;;;;;;-145.68;70.57;73361.88;10359450;28;20592;-70
2023/07/17 05:14:27;;;;;;;5.05;3.05;;;;;;;-145.68;70.09;73349.88;10359107;28;20282;-70
2023/07/17 05:19:29;;;;;;;7.45;3.35;;;;;;;-145.68;68.76;73315.91;10359054;28;20304;-70
2023/07/17 05:24:29;;;;;;;7.70;3.25;;;;;;;-145.68;67.71;73303.91;10376183;28;20683;-71
2023/07/17 05:29:30;;;;;;;4.95;3.17;;;;;;;-145.68;65.85;73269.94;10358323;28;20648;-71
2023/07/17 05:34:31;;;;;;;4.45;3.22;;;;;;;-145.68;65.44;73269.94;10358270;28;20221;-71
2023/07/17 05:39:31;;;;;;;6.78;3.60;;;;;;;-145.68;64.84;73241.97;10359151;28;20212;-71
2023/07/17 05:44:32;;;;;;;8.35;3.58;;;;;;;-145.68;64.58;73219.97;10358096;28;20241;-70
2023/07/17 05:49:35;;;;;;;7.82;3.58;;;;;;;-145.68;64.57;73219.97;10357889;28;20181;-70
2023/07/17 05:54:36;;;;;;;5.70;3.10;;;;;;;-145.68;63.49;73176.00;10333570;28;20720;-70
2023/07/17 05:59:36;;;;;;;5.78;3.28;;;;;;;-145.68;63.36;73142.03;10333181;28;20218;-70
2023/07/17 06:04:37;;;;;;;9.63;3.53;;;;;;;-145.68;62.84;73124.03;10333075;28;20216;-71
2023/07/17 06:09:37;;;;;;;7.20;3.55;;;;;;;-145.68;60.78;73084.06;10334439;28;20190;-69
2023/07/17 06:14:38;;;;;;;5.70;3.70;;;;;;;-145.68;58.15;73040.09;10334274;28;20225;-70
2023/07/17 06:19:38;;;;;;;6.25;3.47;;;;;;;-145.68;53.05;72930.19;10334119;28;20226;-70
2023/07/17 06:24:38;;;;;;;11.20;4.10;;;;;;;-145.68;49.86;72902.19;10349031;28;20206;-70
2023/07/17 06:29:39;;;;;;;5.07;3.60;;;;;;;-145.68;48.66;72912.19;10341156;28;20615;-70
2023/07/17 06:34:41;;;;;;;5.32;3.80;;;;;;;-145.68;47.22;72858.22;10345499;28;20218;-70
2023/07/17 06:39:41;;;;;;;8.85;4.40;;;;;;;-145.68;46.87;72878.22;10333418;28;20221;-71
2023/07/17 06:44:42;;;;;;;10.60;4.20;;;;;;;-145.68;46.19;72832.25;10333011;28;20599;-70
2023/07/17 06:49:42;;;;;;;9.75;4.43;;;;;;;-145.68;44.45;72824.25;10332727;28;20569;-69
2023/07/17 06:54:43;;;;;;;10.65;4.90;;;;;;;-145.68;45.14;72786.28;10362230;28;20318;-70
2023/07/17 06:59:43;;;;;;;8.90;4.10;;;;;;;-145.68;44.42;72690.38;10372491;28;20217;-70
2023/07/17 07:04:43;;;;;;;7.63;4.40;;;;;;;-145.68;41.68;72654.41;10372537;28;20225;-70
2023/07/17 07:09:44;;;;;;;7.22;4.35;;;;;;;-145.68;39.95;72582.44;10372051;28;20192;-71
2023/07/17 07:14:44;;;;;;;11.32;4.57;;;;;;;-145.68;39.71;72700.34;10372183;28;20209;-70
2023/07/17 07:19:45;;;;;;;7.25;4.13;;;;;;;-145.68;39.60;72658.38;10371646;28;20774;-71
2023/07/17 07:24:46;;;;;;;8.18;4.50;;;;;;;-145.68;37.92;72408.59;10371743;28;20274;-69
2023/07/17 07:29:46;;;;;;;9.18;4.32;;;;;;;-145.68;35.60;72302.69;10371666;28;20204;-69
2023/07/17 07:34:47;;;;;;;8.32;4.85;;;;;;;-145.68;35.49;72440.56;10371368;28;20209;-69
2023/07/17 07:39:47;;;;;;;8.38;4.47;;;;;;;-145.68;33.51;72204.78;10371322;28;20233;-68
2023/07/17 07:44:48;;;;;;;7.00;4.13;;;;;;;-145.68;33.02;72292.72;10370929;28;20224;-68
2023/07/17 07:49:48;;;;;;;9.60;4.30;;;;;;;-145.68;35.40;72498.53;10371139;28;20612;-68
2023/07/17 07:54:49;;;;;;;9.30;4.72;;;;;;;-145.68;34.20;72416.59;10370369;28;20240;-68
2023/07/17 07:59:49;;;;;;;9.70;4.78;;;;;;;-145.68;33.13;72318.69;10370714;28;20229;-68
2023/07/17 08:04:50;;;;;;;7.18;4.47;;;;;;;-145.68;33.30;72320.69;10370624;28;20213;-68
2023/07/17 08:09:51;;;;;;;6.63;4.20;;;;;;;-145.68;33.02;72188.81;10370446;28;20173;-69
2023/07/17 08:14:51;;;;;;;9.10;4.70;;;;;;;-145.68;32.31;72138.84;10370616;28;20280;-69
2023/07/17 08:19:52;;;;;;;7.53;4.07;;;;;;;-145.68;31.63;72108.88;10370131;28;20224;-68
2023/07/17 08:24:52;;;;;;;11.98;4.68;;;;;;;-145.68;31.80;72044.94;10415780;28;20298;-70
2023/07/17 08:29:52;;;;;;;6.03;4.23;;;;;;;-145.68;30.70;71935.03;10452107;28;20192;-70
2023/07/17 08:34:53;;;;;;;7.13;4.60;;;;;;;-145.68;31.98;72060.94;10450953;28;20471;-69
2023/07/17 08:39:53;;;;;;;9.70;4.75;;;;;;;-145.68;35.17;72396.63;10447821;28;20466;-70
2023/07/17 08:44:56;;;;;;;6.93;4.22;;;;;;;-145.68;35.11;72476.53;10450950;28;20207;-69
2023/07/17 08:49:57;;;;;;;8.40;4.15;;;;;;;-145.68;35.06;72372.63;10449993;28;20947;-70
2023/07/17 08:54:58;;;;;;;8.23;4.55;;;;;;;-145.68;36.71;72506.50;10450394;28;20239;-71
2023/07/17 08:59:59;;;;;;;9.52;4.45;;;;;;;-145.68;36.06;72482.53;10451088;28;20219;-70
2023/07/17 09:04:59;;;;;;;8.27;4.25;;;;;;;-145.68;33.70;72160.81;10453108;28;20310;-70
2023/07/17 09:10:13;;;;;;;6.97;4.35;;;;;;;-145.68;33.95;72202.78;10456937;28;20191;-69
2023/07/17 09:15:15;;;;;;;5.15;3.67;;;;;;;-145.68;32.33;72154.84;10457977;28;20222;-69
2023/07/17 09:20:17;;;;;;;9.35;3.95;;;;;;;-145.68;33.09;72248.75;10458047;28;20258;-69
2023/07/17 09:25:17;;;;;;;8.43;4.07;;;;;;;-145.68;31.98;72048.94;10456335;28;20212;-68
2023/07/17 09:30:20;;;;;;;7.87;4.40;;;;;;;-145.68;31.07;71861.13;10457715;28;20757;-70
2023/07/17 09:35:23;;;;;;;4.82;3.63;;;;;;;-145.68;30.54;71889.09;10457090;28;20880;-69
2023/07/17 09:40:26;;;;;;;5.82;3.53;;;;;;;-145.68;30.06;71947.03;10453625;28;20215;-69
2023/07/17 09:45:26;;;;;;;5.55;3.28;;;;;;;-145.68;33.12;72210.78;10414676;28;20216;-69
2023/07/17 09:50:27;;;;;;;8.27;4.13;;;;;;;-145.68;34.16;72368.63;10415731;28;20623;-69
2023/07/17 09:55:30;;;;;;;6.13;3.33;;;;;;;-145.68;33.51;72130.84;10415587;28;20668;-68
2023/07/17 10:00:31;;;;;;;6.05;4.13;;;;;;;-145.68;32.90;72250.75;10415171;28;20220;-69
2023/07/17 10:05:32;;;;;;;7.90;3.97;;;;;;;-145.68;33.67;72146.84;10415250;28;20205;-70
2023/07/17 10:10:34;;;;;;;9.10;3.80;;;;;;;-145.68;32.93;72190.81;10415223;28;20184;-70
2023/07/17 10:15:35;;;;;;;7.00;3.85;;;;;;;-145.68;32.76;72128.84;10413714;28;20212;-69
2023/07/17 10:20:36;;;;;;;8.05;3.67;;;;;;;-145.68;33.43;72336.66;10413690;28;20584;-70
2023/07/17 10:25:36;;;;;;;9.43;3.80;;;;;;;-145.68;34.63;72380.63;10413167;28;20216;-71
2023/07/17 10:30:37;;;;;;;6.93;3.95;;;;;;;-145.68;33.92;72236.75;10414422;28;20663;-69
2023/07/17 10:35:56;;;;;;;7.47;3.88;;;;;;;-145.68;32.64;72144.84;10414040;28;20647;-69
2023/07/17 10:41:23;;;;;;;5.43;3.45;;;;;;;-145.68;32.56;72212.78;10413801;28;20240;-69
2023/07/17 10:46:28;;;;;;;6.65;3.85;;;;;;;-145.68;32.52;72250.75;10412912;28;20192;-69
2023/07/17 10:51:28;;;;;;;6.28;3.53;;;;;;;-145.68;33.32;72290.72;10413162;28;20238;-69
2023/07/17 10:56:30;;;;;;;6.18;3.40;;;;;;;-145.68;32.05;72172.81;10492588;22;20236;-68
2023/07/17 11:01:31;;;;;;;7.95;3.55;;;;;;;-145.68;32.54;72156.84;10445191;28;20213;-68
2023/07/17 11:06:31;;;;;;;8.77;4.07;;;;;;;-145.68;30.95;71996.97;10431085;28;20211;-69
2023/07/17 11:11:32;;;;;;;5.78;3.53;;;;;;;-145.68;31.44;72032.94;10420434;28;20192;-68
2023/07/17 11:16:33;;;;;;;5.93;3.90;;;;;;;-145.68;31.08;71955.03;10432614;28;20718;-68
2023/07/17 11:21:34;;;;;;;5.70;3.08;;;;;;;-145.68;31.72;72084.91;10430081;28;20207;-70
2023/07/17 11:26:34;;;;;;;7.25;3.65;;;;;;;-145.68;32.98;72174.81;10432330;28;20212;-69
2023/07/17 11:31:35;;;;;;;6.40;3.40;;;;;;;-145.68;32.25;71951.03;10418743;28;20203;-68
2023/07/17 11:36:41;;;;;;;6.38;3.40;;;;;;;-145.68;31.98;72040.94;10412092;28;20586;-69
2023/07/17 11:41:42;;;;;;;5.85;3.28;;;;;;;-145.68;32.05;72060.94;10411598;28;20307;-68
2023/07/17 11:46:42;;;;;;;7.35;3.15;;;;;;;-145.68;33.93;72092.91;10411418;28;20659;-68
2023/07/17 11:51:43;;;;;;;7.15;3.70;;;;;;;-145.68;31.21;71845.13;10410380;28;20276;-68
2023/07/17 11:56:44;;;;;;;6.45;3.60;;;;;;;-145.68;30.13;71827.16;10411188;28;20243;-68
2023/07/17 12:01:45;;;;;;;6.53;3.38;;;;;;;-145.68;31.41;71953.03;10411412;28;20224;-68
2023/07/17 12:06:46;;;;;;;8.05;3.67;;;;;;;-145.68;33.34;72224.78;10411413;28;20205;-68
2023/07/17 12:11:46;;;;;;;6.20;3.88;;;;;;;-145.68;32.94;72186.81;10409901;28;20243;-67
2023/07/17 12:16:48;;;;;;;7.43;3.42;;;;;;;-145.68;32.29;72064.91;10410945;28;20223;-67
2023/07/17 12:21:48;;;;;;;10.50;3.85;;;;;;;-145.68;32.64;72168.81;10409789;28;20290;-67
2023/07/17 12:26:49;;;;;;;8.43;3.35;;;;;;;-145.68;31.83;72064.91;10411052;28;20638;-68
2023/07/17 12:31:49;;;;;;;6.00;4.17;;;;;;;-145.68;31.43;72084.91;10410417;28;20184;-67
2023/07/17 12:36:50;;;;;;;5.25;2.97;;;;;;;-145.68;30.78;72056.94;10407735;28;20455;-68
2023/07/17 12:41:50;;;;;;;5.90;3.80;;;;;;;-145.68;30.85;71889.09;10422606;28;20215;-68
2023/07/17 12:46:50;;;;;;;7.23;3.27;;;;;;;-145.68;30.70;71947.03;10438519;28;20205;-68
2023/07/17 12:51:51;;;;;;;4.60;3.20;;;;;;;-145.68;31.21;72012.97;10427429;28;20502;-69
2023/07/17 12:56:52;;;;;;;6.80;3.75;;;;;;;-145.68;30.06;71849.13;10417157;28;20475;-68
2023/07/17 13:01:53;;;;;;;5.30;3.67;;;;;;;-145.68;31.21;72012.97;10418470;28;20293;-68
2023/07/17 13:06:53;;;;;;;5.90;3.47;;;;;;;-145.68;30.28;71783.19;10430351;28;20284;-68
2023/07/17 13:11:54;;;;;;;6.15;3.65;;;;;;;-145.68;27.61;71525.47;10442716;28;20320;-69
2023/07/17 13:16:54;;;;;;;6.50;3.83;;;;;;;-145.68;28.08;71567.44;10444969;28;20299;-68
2023/07/17 13:21:54;;;;;;;7.03;3.50;;;;;;;-145.68;27.24;71499.50;10428073;28;20235;-68
2023/07/17 13:26:55;;;;;;;6.68;3.47;;;;;;;-145.68;27.79;71733.25;10416946;28;20527;-69
2023/07/17 13:31:59;;;;;;;7.55;3.63;;;;;;;-145.68;28.50;71717.28;10417842;28;20181;-69
2023/07/17 13:36:59;;;;;;;7.28;3.70;;;;;;;-145.68;27.67;71493.50;10417216;28;20224;-68
2023/07/17 13:41:59;;;;;;;9.65;3.85;;;;;;;-145.68;26.49;71255.78;10416386;28;20247;-68
2023/07/17 13:47:00;;;;;;;6.68;4.28;;;;;;;-145.68;27.26;71557.44;10416658;28;20185;-69
2023/07/17 13:52:00;;;;;;;10.13;4.45;;;;;;;-145.68;27.96;71777.22;10415435;28;20184;-69
2023/07/17 13:57:01;;;;;;;7.88;3.40;;;;;;;-145.68;29.67;71985.00;10414045;28;20713;-67
2023/07/17 14:02:01;;;;;;;8.25;3.80;;;;;;;-145.68;28.83;71843.13;10414932;28;20224;-68
2023/07/17 14:07:02;;;;;;;5.60;3.70;;;;;;;-145.68;28.52;71751.22;10416213;28;20678;-68
2023/07/17 14:12:02;;;;;;;9.43;4.05;;;;;;;-145.68;26.83;71521.47;10415558;28;20208;-68
2023/07/17 14:17:03;;;;;;;5.28;3.60;;;;;;;-145.68;27.83;71603.38;10414947;28;20210;-68
2023/07/17 14:22:03;;;;;;;8.30;3.83;;;;;;;-145.68;29.16;71811.16;10415037;28;20228;-68
2023/07/17 14:27:04;;;;;;;6.45;3.90;;;;;;;-145.68;30.16;71945.03;10414660;28;20196;-68
2023/07/17 14:32:05;;;;;;;7.55;3.35;;;;;;;-145.68;28.06;71781.19;10413687;28;20192;-67
2023/07/17 14:37:06;;;;;;;10.10;3.90;;;;;;;-145.68;27.37;71587.41;10414395;28;20188;-67
2023/07/17 14:42:06;;;;;;;6.40;3.70;;;;;;;-145.68;25.18;71295.72;10413842;28;20250;-68
2023/07/17 14:47:07;;;;;;;6.88;3.58;;;;;;;-145.68;24.90;71267.75;10413875;28;20236;-69
2023/07/17 14:52:07;;;;;;;6.70;3.75;;;;;;;-145.68;26.53;71707.28;10423740;28;20187;-68
2023/07/17 14:57:08;;;;;;;6.15;3.67;;;;;;;-145.68;26.39;71701.28;10433724;28;20189;-68
2023/07/17 15:02:08;;;;;;;12.50;3.38;;;;;;;-145.68;26.50;71547.44;10429482;28;20212;-69
2023/07/17 15:07:09;;;;;;;5.50;3.28;;;;;;;-145.68;26.40;71535.47;10428511;28;20184;-69
2023/07/17 15:12:09;;;;;;;6.93;3.40;;;;;;;-145.68;26.57;71635.34;10421430;28;20196;-69
2023/07/17 15:17:10;;;;;;;6.15;3.15;;;;;;;-145.68;28.19;71931.06;10427986;28;20184;-69
2023/07/17 15:22:12;;;;;;;6.63;2.70;;;;;;;-145.68;26.66;71477.53;10433235;28;20212;-68
2023/07/17 15:27:14;;;;;;;5.03;3.28;;;;;;;-145.68;25.10;71369.66;10451694;28;20739;-68
2023/07/17 15:32:14;;;;;;;5.20;3.28;;;;;;;-145.68;24.46;71189.84;10453655;28;20190;-69
2023/07/17 15:37:14;;;;;;;5.33;2.80;;;;;;;-145.68;23.92;71038.03;10424431;28;20195;-69
2023/07/17 15:42:15;;;;;;;4.50;3.10;;;;;;;-145.68;24.84;71267.75;10411402;28;20475;-69
2023/07/17 15:47:15;;;;;;;5.73;3.10;;;;;;;-145.68;25.77;71609.38;10411677;28;20447;-69
2023/07/17 15:52:15;;;;;;;6.17;3.20;;;;;;;-145.68;26.00;71567.44;10411034;28;20846;-69
2023/07/17 15:57:16;;;;;;;4.32;2.60;;;;;;;-145.68;25.33;71397.63;10411131;28;20793;-69
2023/07/17 16:02:16;;;;;;;8.52;3.35;;;;;;;-145.68;26.88;71665.31;10410140;28;20250;-69
2023/07/17 16:07:17;;;;;;;6.93;2.90;;;;;;;-145.68;25.80;71513.50;10425375;28;20196;-69
2023/07/17 16:12:17;;;;;;;5.32;2.85;;;;;;;-145.68;25.82;71507.50;10420224;28;20211;-69
2023/07/17 16:17:17;;;;;;;6.00;3.07;;;;;;;-145.68;27.57;71781.19;10425304;28;20234;-69
2023/07/17 16:22:18;;;;;;;5.63;2.83;;;;;;;-145.68;29.31;71993.00;10424846;28;20536;-69
2023/07/17 16:27:18;;;;;;;9.35;3.53;;;;;;;-145.68;28.80;71923.06;10425058;28;20192;-68
2023/07/17 16:32:18;;;;;;;4.85;3.35;;;;;;;-145.68;27.99;71845.13;10425073;28;20205;-69
2023/07/17 16:37:19;;;;;;;6.28;2.97;;;;;;;-145.68;28.29;71893.09;10424960;28;20202;-69
2023/07/17 16:42:19;;;;;;;6.90;3.15;;;;;;;-145.68;28.70;71849.13;10424763;28;20232;-69
2023/07/17 16:47:20;;;;;;;5.15;3.00;;;;;;;-145.68;28.33;71769.22;10424644;28;20196;-69
2023/07/17 16:52:20;;;;;;;5.27;3.00;;;;;;;-145.68;28.46;71783.19;10424035;28;20247;-70
2023/07/17 16:57:20;;;;;;;11.27;3.42;;;;;;;-145.68;28.97;71903.06;10365722;22;21048;-66
2023/07/17 17:02:21;;;;;;;10.85;3.40;;;;;;;-145.68;28.95;71889.09;10342348;28;20238;-65
2023/07/17 17:07:21;;;;;;;9.35;3.03;;;;;;;-145.68;29.06;71931.06;10342296;28;20289;-66
2023/07/17 17:12:21;;;;;;;6.45;3.05;;;;;;;-145.68;30.80;72102.88;10342168;28;20182;-65
2023/07/17 17:17:22;;;;;;;6.38;3.30;;;;;;;-145.68;31.31;72172.81;10374064;28;20308;-66
2023/07/17 17:22:22;;;;;;;8.13;3.47;;;;;;;-145.68;31.86;72168.81;10382510;28;20221;-66
2023/07/17 17:27:23;;;;;;;10.02;3.55;;;;;;;-145.68;31.87;72184.81;10376341;28;20579;-66
2023/07/17 17:32:23;;;;;;;7.15;2.90;;;;;;;-145.68;31.63;72120.88;10375986;28;20293;-64
2023/07/17 17:37:24;;;;;;;6.15;2.90;;;;;;;-145.68;32.33;72172.81;10376077;28;20307;-64
2023/07/17 17:42:24;;;;;;;11.38;3.30;;;;;;;-145.68;32.90;72228.75;10375660;28;20240;-64
2023/07/17 17:47:25;;;;;;;11.10;3.55;;;;;;;-145.68;33.05;72208.78;10378028;28;20331;-64
2023/07/17 17:52:25;;;;;;;10.23;3.10;;;;;;;-145.68;33.57;72236.75;10375373;28;20185;-64
2023/07/17 17:57:25;;;;;;;10.23;3.50;;;;;;;-145.68;34.30;72250.75;10375267;28;20248;-64
2023/07/17 18:02:26;;;;;;;17.17;3.60;;;;;;;-145.68;34.05;72264.72;10374947;28;20209;-64
2023/07/17 18:07:26;;;;;;;11.80;3.55;;;;;;;-145.68;34.45;72296.69;10374983;28;20205;-62
2023/07/17 18:12:27;;;;;;;6.70;3.20;;;;;;;-145.68;34.46;72318.69;10374338;28;20665;-64
2023/07/17 18:17:27;;;;;;;12.52;3.33;;;;;;;-145.68;36.19;72404.59;10374203;28;20798;-64
2023/07/17 18:22:27;;;;;;;8.63;3.25;;;;;;;-145.68;36.22;72432.59;10373622;28;20221;-64
2023/07/17 18:27:28;;;;;;;7.50;3.17;;;;;;;-145.68;36.64;72450.56;10373877;28;20211;-63
2023/07/17 18:32:28;;;;;;;9.10;3.00;;;;;;;-145.68;36.75;72520.50;10373584;28;20682;-63
2023/07/17 18:37:28;;;;;;;12.25;3.78;;;;;;;-145.68;38.88;72608.44;10372405;28;20667;-63
2023/07/17 18:42:29;;;;;;;7.97;2.95;;;;;;;-145.68;39.29;72584.44;10372833;28;20625;-63
2023/07/17 18:47:29;;;;;;;9.30;3.25;;;;;;;-145.68;40.34;72634.41;10372907;28;20592;-62
2023/07/17 18:52:30;;;;;;;15.63;3.72;;;;;;;-145.68;40.89;72688.38;10372331;28;20193;-63
2023/07/17 18:57:30;;;;;;;7.30;3.30;;;;;;;-145.68;42.21;72746.31;10372616;28;20559;-63
2023/07/17 19:02:31;;;;;;;6.65;3.33;;;;;;;-145.68;42.24;72752.31;10371039;28;20220;-63
2023/07/17 19:07:31;;;;;;;6.88;3.67;;;;;;;-145.68;41.02;72768.31;10371008;28;20189;-63
2023/07/17 19:12:32;;;;;;;8.70;3.90;;;;;;;-145.68;41.44;72752.31;10371410;28;20284;-64
2023/07/17 19:17:34;;;;;;;6.63;3.92;;;;;;;-145.68;41.65;72756.31;10371641;28;20197;-64
2023/07/17 19:22:35;;;;;;;6.45;3.00;;;;;;;-145.68;41.67;72780.28;10371522;28;20581;-64
2023/07/17 19:27:35;;;;;;;8.13;3.85;;;;;;;-145.68;41.76;72794.28;10371070;28;20211;-64
2023/07/17 19:32:37;;;;;;;7.07;3.38;;;;;;;-145.68;40.03;72776.28;10371470;28;20189;-63
2023/07/17 19:37:39;;;;;;;9.35;3.55;;;;;;;-145.68;39.29;72762.31;10371147;28;20288;-64
2023/07/17 19:42:39;;;;;;;8.40;3.03;;;;;;;-145.68;39.42;72804.28;10370455;28;20225;-64
2023/07/17 19:47:40;;;;;;;5.72;3.20;;;;;;;-145.68;39.20;72802.28;10370452;28;20185;-64
2023/07/17 19:52:40;;;;;;;7.30;2.72;;;;;;;-145.68;38.98;72812.28;10370382;28;20186;-64
2023/07/17 19:57:40;;;;;;;8.65;3.35;;;;;;;-145.68;39.72;72852.25;10370902;28;20209;-64
2023/07/17 20:02:41;;;;;;;6.10;3.38;;;;;;;-145.68;39.73;72884.22;10369980;28;20969;-64
2023/07/17 20:07:41;;;;;;;6.57;3.20;;;;;;;-145.68;40.22;72902.19;10370420;28;20295;-63
2023/07/17 20:12:41;;;;;;;5.88;3.53;;;;;;;-145.68;40.71;72906.19;10369926;28;20259;-64
2023/07/17 20:17:42;;;;;;;4.65;2.80;;;;;;;-145.68;41.15;72902.19;10370217;28;20197;-63
2023/07/17 20:22:42;;;;;;;6.75;3.03;;;;;;;-145.68;41.79;72934.19;10370854;28;20714;-64
2023/07/17 20:27:43;;;;;;;4.90;2.90;;;;;;;-145.68;42.16;72950.16;10370248;28;20613;-63
2023/07/17 20:32:43;;;;;;;9.38;3.20;;;;;;;-145.68;43.36;72980.13;10370359;28;20553;-63
2023/07/17 20:37:44;;;;;;;6.43;3.13;;;;;;;-145.68;44.24;73022.13;10370171;28;20197;-64
2023/07/17 20:42:47;;;;;;;7.13;3.22;;;;;;;-145.68;44.01;73028.09;10369842;28;20221;-63
2023/07/17 20:47:47;;;;;;;6.28;3.60;;;;;;;-145.68;44.65;73052.09;10370137;28;20260;-63
2023/07/17 20:52:48;;;;;;;7.50;3.35;;;;;;;-145.68;45.53;73112.03;10369367;28;21002;-62
2023/07/17 20:57:48;;;;;;;11.52;3.33;;;;;;;-145.68;45.70;73116.03;10370044;28;20567;-63
2023/07/17 21:02:48;;;;;;;7.22;2.88;;;;;;;-145.68;45.96;73134.03;10375676;28;20225;-63
2023/07/17 21:07:49;;;;;;;7.38;2.90;;;;;;;-145.68;46.49;73156.00;10376975;28;20288;-64
2023/07/17 21:12:51;;;;;;;5.30;2.90;;;;;;;-145.68;46.22;73160.00;10376304;28;20232;-64
2023/07/17 21:17:51;;;;;;;3.70;2.65;;;;;;;-145.68;46.38;73176.00;10375994;28;20200;-63
2023/07/17 21:22:51;;;;;;;6.15;3.40;;;;;;;-145.68;46.54;73196.00;10376797;28;20225;-64
2023/07/17 21:27:52;;;;;;;5.72;2.50;;;;;;;-145.68;46.15;73198.00;10376600;28;20226;-63
2023/07/17 21:32:53;;;;;;;4.15;2.80;;;;;;;-145.68;46.26;73192.00;10376561;28;20205;-63
2023/07/17 21:37:53;;;;;;;8.32;3.03;;;;;;;-145.68;46.82;73196.00;10376333;28;20200;-63
2023/07/17 21:42:53;;;;;;;5.68;2.97;;;;;;;-145.68;47.39;73211.97;10374542;28;20217;-63
2023/07/17 21:47:54;;;;;;;5.95;3.08;;;;;;;-145.68;48.49;73299.91;10375001;28;20185;-64
2023/07/17 21:52:54;;;;;;;5.68;2.83;;;;;;;-145.68;48.47;73293.94;10375462;28;20229;-63
2023/07/17 21:57:55;;;;;;;6.60;3.00;;;;;;;-145.68;48.61;73287.94;10375640;28;20197;-63
2023/07/17 22:02:55;;;;;;;10.23;2.53;;;;;;;-145.68;49.31;73321.91;10375110;28;20225;-62
2023/07/17 22:07:55;;;;;;;10.18;2.80;;;;;;;-145.68;49.36;73313.91;10375300;28;20295;-63
2023/07/17 22:12:56;;;;;;;6.18;3.05;;;;;;;-145.68;49.65;73331.91;10374591;28;20216;-63
2023/07/17 22:17:56;;;;;;;7.75;2.90;;;;;;;-145.68;50.00;73349.88;10374962;28;20190;-63
2023/07/17 22:22:56;;;;;;;8.25;2.58;;;;;;;-145.68;49.05;73437.84;10374365;28;20221;-63
2023/07/17 22:27:57;;;;;;;5.60;2.53;;;;;;;-145.68;50.12;73503.78;10374459;28;20205;-64
2023/07/17 22:32:57;;;;;;;5.22;2.45;;;;;;;-145.68;51.53;73579.75;10374042;28;20215;-64
2023/07/17 22:37:57;;;;;;;8.00;2.20;;;;;;;-145.68;52.57;73645.72;10373888;28;20223;-63
2023/07/17 22:42:58;;;;;;;2.15;1.30;;;;;;;-145.68;52.41;73691.69;10373543;28;20287;-62
2023/07/17 22:47:58;;;;;;;2.15;1.25;;;;;;;-145.68;52.80;73711.66;10373564;28;20220;-63